Aviation Digital Data Service (ADDS)

Output produced by METARs form (2203 UTC 01 December 2021)
found at http://aviationweather.gov/metar/data/
 
KDFW 012058Z 0121/0224 32006KT P6SM FEW250 
     FM020200 21008KT P6SM FEW250